createdAt,value
2019-03-12T00:00:32.407Z,72.10
2019-03-12T00:03:01.212Z,72.20
2019-03-12T00:05:29.773Z,72.20
2019-03-12T00:07:58.932Z,72.20
2019-03-12T00:10:27.732Z,72.40
2019-03-12T00:12:56.656Z,72.40
2019-03-12T00:15:25.697Z,72.50
2019-03-12T00:17:54.141Z,72.60
2019-03-12T00:20:22.820Z,72.30
2019-03-12T00:22:51.981Z,72.50
2019-03-12T00:25:20.786Z,72.80
2019-03-12T00:27:49.582Z,73.30
2019-03-12T00:30:18.987Z,73.70
2019-03-12T00:32:48.745Z,73.60
2019-03-12T00:35:17.674Z,74.00
2019-03-12T00:37:46.349Z,73.80
2019-03-12T00:40:15.035Z,73.90
2019-03-12T00:42:44.072Z,73.90
2019-03-12T00:45:13.356Z,74.20
2019-03-12T00:47:42.157Z,74.40
2019-03-12T00:50:11.798Z,74.50
2019-03-12T00:52:40.600Z,74.80
2019-03-12T00:55:09.522Z,75.20
2019-03-12T00:57:37.962Z,75.10
2019-03-12T01:00:15.887Z,75.30
2019-03-12T01:02:44.691Z,75.20
2019-03-12T01:05:13.127Z,75.30
2019-03-12T01:07:42.049Z,74.80
2019-03-12T01:10:15.411Z,74.50
2019-03-12T01:12:44.337Z,74.80
2019-03-12T01:15:14.102Z,74.90
2019-03-12T01:17:42.782Z,74.90
2019-03-12T01:20:13.018Z,74.90
2019-03-12T01:22:42.063Z,74.90
2019-03-12T01:25:11.948Z,74.70
2019-03-12T01:27:40.985Z,74.80
2019-03-12T01:30:12.550Z,74.70
2019-03-12T01:32:41.351Z,74.50
2019-03-12T01:35:11.469Z,74.20
2019-03-12T01:37:40.514Z,73.90
2019-03-12T01:40:11.834Z,73.90
2019-03-12T01:42:40.753Z,73.80
2019-03-12T01:45:11.726Z,73.60
2019-03-12T01:47:40.996Z,73.50
2019-03-12T01:50:16.399Z,73.30
2019-03-12T01:52:44.959Z,73.20
2019-03-12T01:55:15.440Z,73.30
2019-03-12T01:57:44.250Z,73.10
2019-03-12T02:00:17.124Z,73.10
2019-03-12T02:02:46.052Z,72.80
2019-03-12T02:05:15.094Z,72.90
2019-03-12T02:07:43.893Z,72.70
2019-03-12T02:10:13.655Z,72.50
2019-03-12T02:12:42.570Z,72.50
2019-03-12T02:15:17.736Z,72.90
2019-03-12T02:17:46.412Z,73.00
2019-03-12T02:20:16.533Z,73.20
2019-03-12T02:22:44.977Z,73.40
2019-03-12T02:25:16.417Z,73.50
2019-03-12T02:27:44.980Z,73.20
2019-03-12T02:30:16.303Z,73.20
2019-03-12T02:32:45.129Z,73.20
2019-03-12T02:35:14.024Z,73.30
2019-03-12T02:37:42.824Z,73.20
2019-03-12T02:40:12.827Z,73.10
2019-03-12T02:42:41.752Z,73.10
2019-03-12T02:45:12.841Z,73.10
2019-03-12T02:47:41.395Z,72.90
2019-03-12T02:50:15.353Z,73.00
2019-03-12T02:52:44.168Z,72.70
2019-03-12T02:55:13.320Z,72.60
2019-03-12T02:57:41.877Z,72.50
2019-03-12T03:00:23.524Z,72.50
2019-03-12T03:02:52.442Z,72.30
2019-03-12T03:05:21.011Z,72.10
2019-03-12T03:07:59.891Z,72.20
2019-03-12T03:10:28.697Z,72.40
2019-03-12T03:12:57.367Z,72.10
2019-03-12T03:15:35.770Z,72.00
2019-03-12T03:18:04.710Z,71.90
2019-03-12T03:20:33.496Z,71.90
2019-03-12T03:23:01.945Z,72.10
2019-03-12T03:25:30.857Z,72.00
2019-03-12T03:27:59.863Z,72.40
2019-03-12T03:30:28.710Z,72.40
2019-03-12T03:32:57.740Z,72.10
2019-03-12T03:35:26.307Z,72.00
2019-03-12T03:37:55.221Z,72.10
2019-03-12T03:40:24.023Z,72.30
2019-03-12T03:42:52.479Z,72.20
2019-03-12T03:45:21.388Z,72.10
2019-03-12T03:47:50.077Z,71.90
2019-03-12T03:50:18.758Z,71.80
2019-03-12T03:52:47.439Z,72.00
2019-03-12T03:55:22.954Z,71.70
2019-03-12T03:57:51.412Z,71.70
2019-03-12T04:00:26.195Z,71.90
2019-03-12T04:02:54.641Z,71.80
2019-03-12T04:05:23.476Z,71.80
2019-03-12T04:07:52.127Z,72.00
2019-03-12T04:10:20.563Z,71.80
2019-03-12T04:12:49.125Z,71.80
2019-03-12T04:15:18.412Z,71.70
2019-03-12T04:17:46.968Z,71.80
2019-03-12T04:20:16.841Z,71.70
2019-03-12T04:22:45.775Z,72.60
2019-03-12T04:25:14.472Z,71.80
2019-03-12T04:27:43.152Z,71.50
2019-03-12T04:30:16.271Z,71.70
2019-03-12T04:32:44.695Z,71.90
2019-03-12T04:35:28.139Z,72.00
2019-03-12T04:37:56.582Z,72.00
2019-03-12T04:40:25.023Z,72.00
2019-03-12T04:42:53.702Z,72.20
2019-03-12T04:45:22.147Z,72.30
2019-03-12T04:47:50.591Z,72.20
2019-03-12T04:50:19.391Z,72.00
2019-03-12T04:52:47.829Z,72.20
2019-03-12T04:55:16.993Z,72.20
2019-03-12T04:57:45.442Z,72.30
2019-03-12T05:00:19.996Z,72.50
2019-03-12T05:02:48.918Z,72.40
2019-03-12T05:05:17.845Z,72.30
2019-03-12T05:07:46.521Z,72.30
2019-03-12T05:10:16.042Z,72.60
2019-03-12T05:12:44.605Z,72.50
2019-03-12T05:15:14.845Z,72.30
2019-03-12T05:17:43.765Z,72.50
2019-03-12T05:20:14.143Z,72.30
2019-03-12T05:22:42.812Z,72.40
2019-03-12T05:25:14.858Z,72.70
2019-03-12T05:27:43.408Z,72.80
2019-03-12T05:30:14.735Z,72.40
2019-03-12T05:32:43.175Z,72.70
2019-03-12T05:35:11.737Z,72.40
2019-03-12T05:37:40.187Z,72.50
2019-03-12T05:40:10.543Z,72.00
2019-03-12T05:42:39.221Z,72.10
2019-03-12T05:45:10.661Z,72.30
2019-03-12T05:47:39.341Z,71.90
2019-03-12T05:50:11.039Z,71.40
2019-03-12T05:52:38.986Z,71.00
2019-03-12T05:55:09.009Z,71.40
2019-03-12T05:57:37.675Z,71.70
2019-03-12T06:00:09.593Z,72.10
2019-03-12T06:02:38.185Z,71.60
2019-03-12T06:05:07.443Z,71.50
2019-03-12T06:07:35.879Z,71.50
2019-03-12T06:10:06.964Z,71.40
2019-03-12T06:12:35.403Z,71.40
2019-03-12T06:15:05.889Z,71.40
2019-03-12T06:17:34.339Z,70.90
2019-03-12T06:20:03.126Z,71.10
2019-03-12T06:22:31.565Z,71.70
2019-03-12T06:25:00.013Z,72.30
2019-03-12T06:27:28.809Z,72.50
2019-03-12T06:29:57.251Z,70.90
2019-03-12T06:32:27.371Z,70.80
2019-03-12T06:34:57.618Z,71.40
2019-03-12T06:37:27.975Z,71.20
2019-03-12T06:40:01.217Z,71.50
2019-03-12T06:42:31.339Z,72.80
2019-03-12T06:45:07.582Z,71.40
2019-03-12T06:47:47.422Z,71.40
2019-03-12T06:50:35.445Z,71.80
2019-03-12T06:53:05.613Z,71.80
2019-03-12T06:55:51.998Z,71.60
2019-03-12T06:58:27.994Z,71.80
2019-03-12T07:01:14.202Z,71.80
2019-03-12T07:03:47.194Z,71.70
2019-03-12T07:06:17.436Z,72.30
2019-03-12T07:09:02.798Z,71.90
2019-03-12T07:11:33.035Z,71.40
2019-03-12T07:14:05.682Z,71.60
2019-03-12T07:16:41.561Z,72.10
2019-03-12T07:19:20.441Z,72.10
2019-03-12T07:21:53.565Z,71.80
2019-03-12T07:24:23.685Z,71.20
2019-03-12T07:26:53.928Z,71.00
2019-03-12T07:29:24.058Z,70.20
2019-03-12T07:32:06.407Z,69.70
2019-03-12T07:34:45.532Z,68.90
2019-03-12T07:37:18.533Z,68.00
2019-03-12T07:39:57.534Z,65.80
2019-03-12T07:42:30.537Z,65.10
2019-03-12T07:45:03.416Z,63.90
2019-03-12T07:47:35.981Z,63.50
2019-03-12T07:50:22.859Z,62.40
2019-03-12T07:52:53.124Z,62.30
2019-03-12T07:55:39.424Z,61.60
2019-03-12T07:58:18.304Z,60.30
2019-03-12T08:00:51.305Z,60.70
2019-03-12T08:03:24.310Z,59.80
2019-03-12T08:05:57.435Z,60.30
2019-03-12T08:08:42.436Z,60.40
2019-03-12T08:11:15.316Z,59.20
2019-03-12T08:13:45.557Z,60.20
2019-03-12T08:16:24.561Z,60.10
2019-03-12T08:18:57.560Z,59.50
2019-03-12T08:21:30.799Z,59.20
2019-03-12T08:24:13.409Z,59.10
2019-03-12T08:26:44.748Z,58.20
2019-03-12T08:29:14.965Z,58.50
2019-03-12T08:31:45.087Z,58.60
2019-03-12T08:34:27.208Z,58.60
2019-03-12T08:37:02.973Z,58.40
2019-03-12T08:39:33.211Z,58.30
2019-03-12T08:42:03.336Z,57.90
2019-03-12T08:44:48.699Z,58.40
2019-03-12T08:47:18.936Z,56.50
2019-03-12T08:50:04.070Z,57.60
2019-03-12T08:52:49.188Z,57.90
2019-03-12T08:55:37.186Z,57.50
2019-03-12T08:58:10.301Z,54.80
2019-03-12T09:00:43.308Z,54.40
2019-03-12T09:03:22.065Z,53.50
2019-03-12T09:05:57.592Z,54.50
2019-03-12T09:08:42.714Z,53.80
2019-03-12T09:11:15.596Z,52.50
2019-03-12T09:13:52.663Z,50.90
2019-03-12T09:16:25.564Z,51.90
2019-03-12T09:19:01.804Z,49.70
2019-03-12T09:21:34.446Z,50.50
2019-03-12T09:24:25.563Z,49.00
2019-03-12T09:26:55.807Z,49.60
2019-03-12T09:29:40.935Z,49.80
2019-03-12T09:32:14.045Z,50.80
2019-03-12T09:34:50.165Z,50.50
2019-03-12T09:37:20.528Z,50.10
2019-03-12T09:40:02.649Z,49.50
2019-03-12T09:42:49.096Z,50.00
2019-03-12T09:45:19.332Z,50.60
2019-03-12T09:48:07.334Z,51.00
2019-03-12T09:50:46.336Z,50.10
2019-03-12T09:53:31.937Z,50.40
2019-03-12T09:56:17.085Z,49.30
2019-03-12T09:59:03.384Z,47.80
2019-03-12T10:01:33.622Z,45.30
2019-03-12T10:04:12.751Z,45.30
2019-03-12T10:06:58.111Z,42.60
2019-03-12T10:09:28.227Z,42.50
2019-03-12T10:11:58.469Z,44.20
2019-03-12T10:14:28.712Z,43.80
2019-03-12T10:17:15.410Z,43.20
2019-03-12T10:19:57.281Z,42.10
2019-03-12T10:22:36.277Z,43.20
2019-03-12T10:25:13.842Z,42.60
2019-03-12T10:27:44.090Z,41.70
2019-03-12T10:30:14.321Z,41.20
2019-03-12T10:32:44.562Z,39.40
2019-03-12T10:35:14.803Z,39.20
2019-03-12T10:37:51.051Z,38.70
2019-03-12T10:40:27.169Z,40.00
2019-03-12T10:43:09.167Z,41.50
2019-03-12T10:45:39.419Z,40.20
2019-03-12T10:48:09.651Z,38.90
2019-03-12T10:50:38.217Z,38.60
2019-03-12T10:53:06.894Z,38.00
2019-03-12T10:55:35.582Z,36.90
2019-03-12T10:58:04.258Z,38.10
2019-03-12T11:00:33.663Z,38.00
2019-03-12T11:03:02.114Z,38.10
2019-03-12T11:05:31.023Z,38.40
2019-03-12T11:07:59.584Z,38.30
2019-03-12T11:10:28.384Z,37.70
2019-03-12T11:12:57.068Z,37.10
2019-03-12T11:15:25.872Z,36.80
2019-03-12T11:17:54.670Z,38.50
2019-03-12T11:20:26.956Z,38.30
2019-03-12T11:22:55.877Z,37.70
2019-03-12T11:25:27.910Z,37.70
2019-03-12T11:27:54.798Z,34.70
2019-03-12T11:30:23.597Z,36.00
2019-03-12T11:32:52.039Z,36.70
2019-03-12T11:35:20.722Z,34.70
2019-03-12T11:37:49.433Z,34.50
2019-03-12T11:40:20.124Z,36.20
2019-03-12T11:42:48.838Z,36.40
2019-03-12T11:45:19.428Z,36.20
2019-03-12T11:47:48.292Z,38.00
2019-03-12T11:50:22.229Z,36.60
2019-03-12T11:52:56.368Z,36.30
2019-03-12T11:55:21.096Z,36.50
2019-03-12T11:57:50.056Z,38.00
2019-03-12T12:00:26.866Z,39.60
2019-03-12T12:03:00.185Z,39.00
2019-03-12T12:05:26.142Z,38.80
2019-03-12T12:07:54.583Z,38.00
2019-03-12T12:10:23.273Z,35.80
2019-03-12T12:12:51.952Z,36.50
2019-03-12T12:15:20.387Z,35.50
2019-03-12T12:17:49.556Z,35.80
2019-03-12T12:20:28.964Z,35.80
2019-03-12T12:22:48.471Z,37.20
2019-03-12T12:25:19.314Z,36.80
2019-03-12T12:27:47.879Z,36.10
2019-03-12T12:30:18.958Z,34.10
2019-03-12T12:32:47.528Z,32.00
2019-03-12T12:35:16.089Z,32.50
2019-03-12T12:37:44.762Z,31.80
2019-03-12T12:40:21.367Z,32.10
2019-03-12T12:42:50.289Z,32.20
2019-03-12T12:45:30.726Z,30.60
2019-03-12T12:47:59.411Z,30.00
2019-03-12T12:50:27.848Z,30.00
2019-03-12T12:52:56.530Z,31.10
2019-03-12T12:55:24.983Z,31.30
2019-03-12T12:57:53.655Z,31.40
2019-03-12T13:00:23.896Z,30.00
2019-03-12T13:02:52.696Z,29.40
2019-03-12T13:05:22.986Z,30.20
2019-03-12T13:07:51.743Z,30.00
2019-03-12T13:10:25.221Z,31.10
2019-03-12T13:12:53.667Z,32.20
2019-03-12T13:15:22.344Z,31.60
2019-03-12T13:17:50.904Z,31.40
2019-03-12T13:20:19.587Z,33.00
2019-03-12T13:22:48.269Z,31.90
2019-03-12T13:25:18.991Z,31.50
2019-03-12T13:27:47.560Z,30.30
2019-03-12T13:30:18.851Z,30.40
2019-03-12T13:32:47.560Z,30.90
2019-03-12T13:35:17.209Z,32.00
2019-03-12T13:37:45.884Z,31.40
2019-03-12T13:40:17.377Z,31.10
2019-03-12T13:42:45.765Z,31.20
2019-03-12T13:45:17.086Z,31.40
2019-03-12T13:47:45.949Z,32.70
2019-03-12T13:50:15.002Z,31.60
2019-03-12T13:52:43.749Z,31.80
2019-03-12T13:55:14.384Z,32.20
2019-03-12T13:57:43.129Z,32.70
2019-03-12T14:00:23.698Z,32.70
2019-03-12T14:02:52.133Z,34.10
2019-03-12T14:05:21.296Z,33.20
2019-03-12T14:07:50.225Z,32.70
2019-03-12T14:10:25.499Z,33.50
2019-03-12T14:12:54.914Z,33.60
2019-03-12T14:15:31.879Z,32.60
2019-03-12T14:18:01.133Z,32.00
2019-03-12T14:20:46.628Z,33.00
2019-03-12T14:23:26.949Z,32.50
2019-03-12T14:25:55.889Z,32.90
2019-03-12T14:28:24.554Z,33.90
2019-03-12T14:30:52.995Z,33.90
2019-03-12T14:33:21.805Z,34.20
2019-03-12T14:35:52.211Z,34.60
2019-03-12T14:38:20.957Z,35.50
2019-03-12T14:40:49.646Z,34.40
2019-03-12T14:43:18.321Z,35.00
2019-03-12T14:45:51.512Z,33.40
2019-03-12T14:48:46.768Z,33.90
2019-03-12T14:51:38.014Z,32.90
2019-03-12T14:54:09.565Z,33.30
2019-03-12T14:56:37.894Z,30.50
2019-03-12T14:59:06.575Z,30.70
2019-03-12T15:01:36.453Z,30.80
2019-03-12T15:04:05.264Z,30.90
2019-03-12T15:06:33.939Z,31.20
2019-03-12T15:09:02.862Z,31.70
2019-03-12T15:11:31.540Z,31.60
2019-03-12T15:14:00.474Z,34.10
2019-03-12T15:16:29.622Z,32.40
2019-03-12T15:18:58.424Z,32.90
2019-03-12T15:21:27.238Z,34.20
2019-03-12T15:23:56.266Z,34.90
2019-03-12T15:26:24.949Z,34.80
2019-03-12T15:28:53.638Z,36.70
2019-03-12T15:31:22.432Z,35.30
2019-03-12T15:33:51.593Z,35.10
2019-03-12T15:36:20.762Z,32.80
2019-03-12T15:38:49.437Z,33.60
2019-03-12T15:41:18.360Z,32.40
2019-03-12T15:43:47.293Z,30.80
2019-03-12T15:46:16.319Z,31.00
2019-03-12T15:48:45.619Z,32.70
2019-03-12T15:51:14.544Z,33.00
2019-03-12T15:53:43.573Z,34.30
2019-03-12T15:56:12.246Z,35.00
2019-03-12T15:58:40.957Z,35.40
2019-03-12T16:01:10.344Z,35.00
2019-03-12T16:03:41.813Z,35.60
2019-03-12T16:06:11.060Z,35.40
2019-03-12T16:08:40.003Z,35.70
2019-03-12T16:11:08.665Z,36.80
2019-03-12T16:13:37.477Z,36.80
2019-03-12T16:16:06.262Z,37.10
2019-03-12T16:18:35.326Z,37.40
2019-03-12T16:21:04.355Z,37.80
2019-03-12T16:23:33.432Z,37.30
2019-03-12T16:26:02.585Z,37.70
2019-03-12T16:28:31.480Z,37.70
2019-03-12T16:30:59.919Z,38.10
2019-03-12T16:33:28.722Z,38.20
2019-03-12T16:35:57.538Z,38.40
2019-03-12T16:38:26.438Z,38.70
2019-03-12T16:40:55.124Z,39.00
2019-03-12T16:43:23.802Z,39.50
2019-03-12T16:45:52.859Z,38.60
2019-03-12T16:48:21.789Z,39.20
2019-03-12T16:50:50.683Z,38.20
2019-03-12T16:53:19.500Z,37.40
2019-03-12T16:55:48.416Z,41.20
2019-03-12T16:58:17.221Z,38.30
2019-03-12T17:00:46.023Z,37.70
2019-03-12T17:03:14.948Z,38.40
2019-03-12T17:05:43.855Z,37.20
2019-03-12T17:08:13.389Z,37.00
2019-03-12T17:10:54.365Z,37.50
2019-03-12T17:13:12.778Z,37.30
2019-03-12T17:15:41.700Z,36.70
2019-03-12T17:18:10.866Z,37.50
2019-03-12T17:20:39.781Z,37.60
2019-03-12T17:23:08.584Z,37.10
2019-03-12T17:25:37.626Z,37.80
2019-03-12T17:28:06.313Z,37.50
2019-03-12T17:30:35.260Z,38.20
2019-03-12T17:33:06.498Z,38.40
2019-03-12T17:35:39.678Z,38.20
2019-03-12T17:38:08.593Z,37.90
2019-03-12T17:40:37.274Z,37.90
2019-03-12T17:43:06.074Z,38.00
2019-03-12T17:45:34.759Z,38.70
2019-03-12T17:48:03.445Z,39.10
2019-03-12T17:50:32.481Z,38.80
2019-03-12T17:53:01.160Z,38.30
2019-03-12T17:55:29.973Z,38.80
2019-03-12T17:57:59.003Z,39.90
2019-03-12T18:00:29.128Z,39.40
2019-03-12T18:02:57.807Z,39.80
2019-03-12T18:05:26.609Z,39.10
2019-03-12T18:07:56.973Z,39.40
2019-03-12T18:10:25.778Z,39.80
2019-03-12T18:12:54.575Z,39.90
2019-03-12T18:15:23.743Z,40.00
2019-03-12T18:17:52.776Z,40.20
2019-03-12T18:20:24.701Z,40.20
2019-03-12T18:22:53.499Z,40.00
2019-03-12T18:25:43.063Z,40.60
2019-03-12T18:28:11.745Z,40.90
2019-03-12T18:30:40.787Z,40.50
2019-03-12T18:33:09.828Z,40.70
2019-03-12T18:35:38.510Z,41.20
2019-03-12T18:38:07.203Z,40.90
2019-03-12T18:40:35.872Z,41.10
2019-03-12T18:43:04.554Z,40.70
2019-03-12T18:45:34.083Z,41.30
2019-03-12T18:48:02.996Z,40.90
2019-03-12T18:50:31.557Z,42.00
2019-03-12T18:53:00.358Z,41.40
2019-03-12T18:55:37.836Z,41.30
2019-03-12T18:58:07.443Z,41.80
2019-03-12T19:00:37.682Z,41.30
2019-03-12T19:03:06.487Z,41.90
2019-03-12T19:05:36.369Z,42.50
2019-03-12T19:08:05.049Z,42.70
2019-03-12T19:10:34.947Z,42.90
2019-03-12T19:13:03.732Z,42.80
2019-03-12T19:15:32.414Z,43.00
2019-03-12T19:18:01.218Z,43.10
2019-03-12T19:20:32.852Z,43.50
2019-03-12T19:23:01.698Z,43.20
2019-03-12T19:25:42.860Z,43.00
2019-03-12T19:28:11.905Z,43.00
2019-03-12T19:30:40.727Z,43.80
2019-03-12T19:33:16.707Z,43.60
2019-03-12T19:35:45.747Z,42.90
2019-03-12T19:38:14.548Z,43.50
2019-03-12T19:40:44.453Z,44.40
2019-03-12T19:43:12.996Z,45.20
2019-03-12T19:45:42.034Z,45.00
2019-03-12T19:48:10.722Z,44.90
2019-03-12T19:50:39.400Z,44.50
2019-03-12T19:53:08.077Z,45.80
2019-03-12T19:55:52.140Z,45.80
2019-03-12T19:58:21.161Z,45.70
2019-03-12T20:00:50.201Z,46.30
2019-03-12T20:03:19.012Z,46.00
2019-03-12T20:05:47.806Z,46.40
2019-03-12T20:08:16.607Z,46.70
2019-03-12T20:11:22.133Z,46.90
2019-03-12T20:14:27.050Z,47.10
2019-03-12T20:17:09.193Z,48.10
2019-03-12T20:20:07.015Z,48.70
2019-03-12T20:23:09.299Z,49.20
2019-03-12T20:26:14.341Z,49.60
2019-03-12T20:29:05.460Z,50.90
2019-03-12T20:32:01.981Z,52.00
2019-03-12T20:34:54.667Z,53.90
2019-03-12T20:38:01.864Z,55.50
2019-03-12T20:40:49.027Z,57.30
2019-03-12T20:43:26.238Z,58.90
2019-03-12T20:46:10.031Z,60.60
2019-03-12T20:49:11.145Z,61.90
2019-03-12T20:52:08.718Z,63.50
2019-03-12T20:54:49.164Z,68.30
2019-03-12T20:57:39.934Z,71.90
2019-03-12T21:00:45.202Z,76.10
2019-03-12T21:03:41.608Z,79.20
2019-03-12T21:06:44.725Z,81.00
2019-03-12T21:09:50.007Z,79.60
2019-03-12T21:12:38.609Z,80.30
2019-03-12T21:15:43.416Z,80.50
2019-03-12T21:18:15.090Z,81.80
2019-03-12T21:21:00.934Z,82.10
2019-03-12T21:23:55.414Z,82.10
2019-03-12T21:26:39.100Z,82.20
2019-03-12T21:29:16.537Z,83.40
2019-03-12T21:31:45.341Z,83.70
2019-03-12T21:34:14.276Z,84.80
2019-03-12T21:36:43.182Z,85.00
2019-03-12T21:39:11.750Z,86.10
2019-03-12T21:41:40.549Z,85.80
2019-03-12T21:44:09.506Z,86.20
2019-03-12T21:46:38.532Z,86.40
2019-03-12T21:49:07.433Z,87.00
2019-03-12T21:51:36.111Z,85.80
2019-03-12T21:54:04.673Z,86.50
2019-03-12T21:56:33.233Z,86.70
2019-03-12T21:59:01.916Z,86.80
2019-03-12T22:01:30.958Z,87.00
2019-03-12T22:03:59.877Z,87.10
2019-03-12T22:06:28.681Z,87.50
2019-03-12T22:08:57.242Z,87.90
2019-03-12T22:11:25.693Z,86.90
2019-03-12T22:13:54.371Z,87.00
2019-03-12T22:16:23.423Z,87.30
2019-03-12T22:18:51.973Z,87.60
2019-03-12T22:21:22.451Z,87.90
2019-03-12T22:23:50.894Z,87.90
2019-03-12T22:26:19.695Z,87.90
2019-03-12T22:28:48.252Z,88.00
2019-03-12T22:31:17.056Z,89.40
2019-03-12T22:33:46.102Z,90.20
2019-03-12T22:36:15.264Z,90.30
2019-03-12T22:38:43.701Z,90.30
2019-03-12T22:41:12.517Z,90.00
2019-03-12T22:43:41.315Z,89.50
2019-03-12T22:46:10.351Z,89.50
2019-03-12T22:48:39.268Z,89.50
2019-03-12T22:51:07.707Z,90.00
2019-03-12T22:53:36.755Z,88.90
2019-03-12T22:56:05.438Z,87.30
2019-03-12T22:58:34.112Z,87.30
2019-03-12T23:01:02.914Z,88.40
2019-03-12T23:03:31.355Z,88.30
2019-03-12T23:06:00.279Z,88.90
2019-03-12T23:08:29.099Z,88.10
2019-03-12T23:10:57.642Z,87.20
2019-03-12T23:13:26.562Z,87.10
2019-03-12T23:15:55.362Z,87.00
2019-03-12T23:18:24.763Z,86.60
2019-03-12T23:20:53.453Z,86.80
2019-03-12T23:23:22.375Z,86.40
2019-03-12T23:25:51.425Z,86.90
2019-03-12T23:28:20.095Z,87.50
2019-03-12T23:30:49.014Z,87.80
2019-03-12T23:33:17.815Z,88.00
2019-03-12T23:35:46.381Z,88.10
2019-03-12T23:38:15.298Z,88.40
2019-03-12T23:40:44.220Z,88.60
2019-03-12T23:43:12.905Z,88.70
2019-03-12T23:45:41.470Z,88.10
2019-03-12T23:48:10.151Z,87.60
2019-03-12T23:50:39.192Z,87.20
2019-03-12T23:53:08.109Z,86.60
2019-03-12T23:55:36.910Z,86.40
2019-03-12T23:58:05.854Z,86.50
